Time;durP1;ratioP1;P1;durP2;ratioP2;P2;SDS_P1;SDS_P2;PMS_P1;PMS_P2;Temp;Humidity;BMP_temperature;BMP_pressure;BME280_temperature;BME280_humidity;BME280_pressure;Samples;Min_cycle;Max_cycle;Signal;HPM_P1;HPM_P2
2022/10/17 00:01:47;;;;;;;9.05;4.10;;;22.00;99.90;;;;;;4741689;30;20565;-76
2022/10/17 00:04:14;;;;;;;10.98;3.88;;;22.00;99.90;;;;;;4741399;30;20056;-76
2022/10/17 00:06:40;;;;;;;9.82;4.40;;;22.00;99.90;;;;;;4742294;30;20064;-76
2022/10/17 00:09:06;;;;;;;12.18;3.67;;;22.00;99.90;;;;;;4742403;30;20128;-76
2022/10/17 00:11:33;;;;;;;12.25;4.00;;;22.00;99.90;;;;;;4753083;29;20227;-76
2022/10/17 00:13:59;;;;;;;13.73;4.07;;;21.90;99.90;;;;;;4741046;30;20044;-76
2022/10/17 00:16:28;;;;;;;10.23;4.30;;;21.90;99.90;;;;;;4742910;30;21249;-76
2022/10/17 00:18:54;;;;;;;13.25;4.50;;;21.90;99.90;;;;;;4747104;30;20098;-77
2022/10/17 00:21:21;;;;;;;14.20;4.35;;;21.90;99.90;;;;;;4744865;30;20508;-77
2022/10/17 00:23:47;;;;;;;11.95;4.15;;;22.00;99.90;;;;;;4743579;30;20084;-76
2022/10/17 00:26:13;;;;;;;11.15;4.45;;;21.90;99.90;;;;;;4735086;30;20080;-76
2022/10/17 00:28:39;;;;;;;10.32;4.20;;;21.90;99.90;;;;;;4742232;30;20048;-76
2022/10/17 00:31:06;;;;;;;12.15;4.72;;;21.90;99.90;;;;;;4755423;29;20059;-76
2022/10/17 00:33:34;;;;;;;9.77;3.80;;;21.90;99.90;;;;;;4741688;30;20040;-76
2022/10/17 00:36:05;;;;;;;10.88;3.90;;;21.90;99.90;;;;;;4741289;29;20036;-76
2022/10/17 00:38:31;;;;;;;8.07;3.63;;;21.90;99.90;;;;;;4742094;30;20102;-75
2022/10/17 00:40:57;;;;;;;11.48;3.45;;;21.90;99.90;;;;;;4739481;29;20056;-76
2022/10/17 00:43:23;;;;;;;9.60;3.45;;;21.90;99.90;;;;;;4725574;30;20060;-77
2022/10/17 00:45:48;;;;;;;8.80;3.47;;;21.90;99.90;;;;;;4738672;30;20124;-75
2022/10/17 00:48:15;;;;;;;8.77;4.00;;;21.90;99.90;;;;;;4739197;30;20060;-76
2022/10/17 00:50:44;;;;;;;10.57;3.50;;;22.00;99.90;;;;;;4740429;29;20121;-76
2022/10/17 00:53:10;;;;;;;13.30;3.63;;;21.90;99.90;;;;;;4737378;30;20063;-76
2022/10/17 00:55:49;;;;;;;8.50;3.47;;;21.90;99.90;;;;;;4740925;30;20040;-76
2022/10/17 00:58:16;;;;;;;7.85;3.45;;;21.90;99.90;;;;;;4740865;30;20040;-77
2022/10/17 01:00:44;;;;;;;12.13;3.42;;;21.90;99.90;;;;;;4725206;30;20393;-76
2022/10/17 01:03:10;;;;;;;8.05;3.40;;;21.90;99.90;;;;;;4740285;30;20588;-76
2022/10/17 01:05:37;;;;;;;11.88;3.20;;;21.80;99.90;;;;;;4740166;30;20146;-76
2022/10/17 01:08:03;;;;;;;7.05;3.50;;;21.80;99.90;;;;;;4742352;30;20124;-76
2022/10/17 01:10:37;;;;;;;11.23;3.40;;;21.80;99.90;;;;;;4743896;30;20511;-76
2022/10/17 01:13:05;;;;;;;12.13;4.43;;;21.70;99.90;;;;;;4740054;30;20045;-76
2022/10/17 01:15:44;;;;;;;10.23;3.97;;;21.70;99.90;;;;;;4738117;30;20044;-75
2022/10/17 01:18:39;;;;;;;8.82;4.13;;;21.80;99.90;;;;;;4737258;30;20052;-75
2022/10/17 01:21:14;;;;;;;15.40;5.15;;;21.80;99.90;;;;;;4736603;29;20423;-76
2022/10/17 01:23:58;;;;;;;10.45;4.28;;;21.80;99.90;;;;;;4735427;30;20062;-76
2022/10/17 01:27:12;;;;;;;11.45;3.97;;;21.80;99.90;;;;;;4736096;30;20122;-76
2022/10/17 01:29:59;;;;;;;13.80;3.78;;;21.80;99.90;;;;;;4736410;30;20082;-76
2022/10/17 01:32:33;;;;;;;10.27;4.30;;;21.70;99.90;;;;;;4737278;30;20041;-76
2022/10/17 01:35:17;;;;;;;10.40;3.85;;;21.70;99.90;;;;;;4737489;30;20394;-75
2022/10/17 01:38:02;;;;;;;11.60;4.13;;;21.70;99.90;;;;;;4740494;30;20052;-77
2022/10/17 01:40:30;;;;;;;;;;;21.70;99.90;;;;;;4742706;30;20063;-75
2022/10/17 01:43:12;;;;;;;9.25;3.97;;;21.60;99.90;;;;;;4743041;30;19930;-76
2022/10/17 01:45:48;;;;;;;10.75;4.05;;;21.60;99.90;;;;;;4725093;30;20036;-75
2022/10/17 01:48:20;;;;;;;9.50;3.85;;;21.50;99.90;;;;;;4738818;30;20120;-75
2022/10/17 01:51:00;;;;;;;10.38;3.85;;;21.50;99.90;;;;;;4739342;30;20125;-76
2022/10/17 01:53:32;;;;;;;10.50;3.78;;;21.50;99.90;;;;;;4739264;30;20044;-77
2022/10/17 01:56:01;;;;;;;10.95;4.00;;;21.40;99.90;;;;;;4738692;30;20045;-76
2022/10/17 01:58:32;;;;;;;11.45;3.78;;;21.40;99.90;;;;;;4752739;30;20044;-76
2022/10/17 02:01:03;;;;;;;10.95;3.83;;;21.40;99.90;;;;;;4743717;30;20359;-76
2022/10/17 02:03:40;;;;;;;10.10;4.20;;;21.40;99.90;;;;;;4726796;30;20378;-76
2022/10/17 02:06:07;;;;;;;14.57;4.03;;;21.40;99.90;;;;;;4735758;30;20044;-76
2022/10/17 02:08:47;;;;;;;12.70;3.90;;;21.40;99.90;;;;;;4741737;30;20055;-77
2022/10/17 02:11:17;;;;;;;10.02;4.20;;;21.30;99.90;;;;;;4739459;30;20089;-76
2022/10/17 02:14:13;;;;;;;10.63;3.97;;;21.40;99.90;;;;;;4740401;30;20118;-76
2022/10/17 02:16:56;;;;;;;13.30;4.10;;;21.40;99.90;;;;;;4738274;30;20045;-76
2022/10/17 02:19:54;;;;;;;12.13;3.53;;;21.40;99.90;;;;;;4737923;30;20054;-76
2022/10/17 02:22:42;;;;;;;11.32;4.13;;;21.40;99.90;;;;;;4742825;30;20409;-76
2022/10/17 02:25:32;;;;;;;14.52;4.60;;;21.40;99.90;;;;;;4741308;29;20063;-75
2022/10/17 02:28:41;;;;;;;10.75;4.00;;;21.40;99.90;;;;;;4739024;30;21087;-75
2022/10/17 02:31:18;;;;;;;12.15;4.35;;;21.30;99.90;;;;;;4739769;30;20032;-75
2022/10/17 02:34:01;;;;;;;9.85;4.28;;;21.30;99.90;;;;;;4740632;30;20127;-76
2022/10/17 02:36:33;;;;;;;13.55;4.07;;;21.30;99.90;;;;;;4740846;29;20127;-76
2022/10/17 02:39:02;;;;;;;11.27;3.88;;;21.20;99.90;;;;;;4743972;30;20052;-76
2022/10/17 02:41:30;;;;;;;8.88;3.90;;;21.20;99.90;;;;;;4731562;30;20040;-76
2022/10/17 02:43:56;;;;;;;10.18;3.97;;;21.20;99.90;;;;;;4743032;30;20036;-75
2022/10/17 02:46:25;;;;;;;10.93;3.60;;;21.20;99.90;;;;;;4728635;30;20043;-75
2022/10/17 02:48:55;;;;;;;12.10;4.45;;;21.20;99.90;;;;;;4740940;30;20063;-76
2022/10/17 02:51:40;;;;;;;13.35;4.00;;;21.20;99.90;;;;;;4741672;30;20421;-76
2022/10/17 02:54:17;;;;;;;10.85;3.88;;;21.30;99.90;;;;;;4741208;30;20048;-76
2022/10/17 02:56:58;;;;;;;13.55;4.10;;;21.30;99.90;;;;;;4744081;30;20040;-76
2022/10/17 02:59:25;;;;;;;10.20;4.35;;;21.30;99.90;;;;;;4742829;30;20073;-76
2022/10/17 03:01:51;;;;;;;9.60;3.70;;;21.20;99.90;;;;;;4741729;30;20044;-76
2022/10/17 03:04:18;;;;;;;12.63;4.05;;;21.20;99.90;;;;;;4753629;30;20045;-76
2022/10/17 03:06:45;;;;;;;17.67;4.63;;;21.20;99.90;;;;;;4748235;30;20068;-76
2022/10/17 03:09:11;;;;;;;7.70;3.80;;;21.20;99.90;;;;;;4742360;30;20525;-76
2022/10/17 03:11:37;;;;;;;9.77;3.90;;;21.10;99.90;;;;;;4741766;30;20472;-76
2022/10/17 03:14:03;;;;;;;10.57;3.80;;;21.10;99.90;;;;;;4744681;30;20071;-75
2022/10/17 03:16:29;;;;;;;10.85;4.32;;;21.10;99.90;;;;;;4743942;30;20103;-75
2022/10/17 03:18:55;;;;;;;13.07;4.05;;;21.10;99.90;;;;;;4743768;30;20040;-76
2022/10/17 03:21:20;;;;;;;13.02;4.13;;;21.20;99.90;;;;;;4742721;30;20059;-76
2022/10/17 03:23:46;;;;;;;11.30;4.22;;;21.20;99.90;;;;;;4744870;30;20044;-76
2022/10/17 03:26:12;;;;;;;8.07;3.90;;;21.20;99.90;;;;;;4742263;30;20048;-76
2022/10/17 03:28:38;;;;;;;11.43;4.43;;;21.20;99.90;;;;;;4742812;30;20555;-76
2022/10/17 03:31:14;;;;;;;9.90;3.90;;;21.20;99.90;;;;;;4743074;29;20028;-76
2022/10/17 03:33:40;;;;;;;11.30;3.85;;;21.10;99.90;;;;;;4731392;30;20507;-76
2022/10/17 03:36:11;;;;;;;14.32;4.68;;;21.10;99.90;;;;;;4740623;30;20058;-76
2022/10/17 03:38:37;;;;;;;10.98;4.07;;;21.10;99.90;;;;;;4740843;30;20037;-76
2022/10/17 03:41:04;;;;;;;8.70;3.95;;;21.10;99.90;;;;;;4737414;30;20040;-76
2022/10/17 03:43:29;;;;;;;11.43;4.50;;;21.10;99.90;;;;;;4745426;30;20068;-76
2022/10/17 03:45:59;;;;;;;12.60;4.32;;;21.10;99.90;;;;;;4740172;30;20048;-75
2022/10/17 03:48:27;;;;;;;10.43;4.40;;;21.10;99.90;;;;;;4737218;30;20040;-75
2022/10/17 03:51:01;;;;;;;14.07;4.60;;;21.10;99.90;;;;;;4740759;29;20398;-76
2022/10/17 03:53:27;;;;;;;11.95;4.22;;;21.10;99.90;;;;;;4738003;30;20041;-75
2022/10/17 03:55:53;;;;;;;8.98;4.70;;;21.10;99.90;;;;;;4741134;30;20044;-75
2022/10/17 03:58:19;;;;;;;13.70;5.00;;;21.10;99.90;;;;;;4739709;30;20040;-76
2022/10/17 04:00:45;;;;;;;10.10;4.00;;;21.10;99.90;;;;;;4742512;29;20040;-75
2022/10/17 04:03:10;;;;;;;12.48;4.88;;;21.00;99.90;;;;;;4739069;30;20055;-75
2022/10/17 04:05:36;;;;;;;10.98;4.30;;;21.00;99.90;;;;;;4741479;30;20044;-76
2022/10/17 04:08:02;;;;;;;14.15;5.03;;;21.00;99.90;;;;;;4745134;30;20039;-75
2022/10/17 04:10:28;;;;;;;13.82;4.75;;;21.00;99.90;;;;;;4742599;30;20089;-75
2022/10/17 04:12:54;;;;;;;12.05;4.90;;;21.00;99.90;;;;;;4745742;30;20042;-76
2022/10/17 04:15:20;;;;;;;12.40;5.13;;;21.00;99.90;;;;;;4741915;29;20056;-76
2022/10/17 04:17:45;;;;;;;10.45;4.70;;;21.00;99.90;;;;;;4741153;30;20128;-76
2022/10/17 04:20:12;;;;;;;11.20;4.85;;;21.10;99.90;;;;;;4740528;30;20055;-75
2022/10/17 04:22:38;;;;;;;13.15;4.78;;;21.10;99.90;;;;;;4734710;30;20047;-76
2022/10/17 04:25:04;;;;;;;10.48;4.80;;;21.10;99.90;;;;;;4722637;30;20051;-76
2022/10/17 04:27:30;;;;;;;12.23;4.22;;;21.10;99.90;;;;;;4730313;30;20049;-76
2022/10/17 04:29:56;;;;;;;11.52;5.45;;;21.10;99.90;;;;;;4726432;30;20102;-76
2022/10/17 04:32:22;;;;;;;11.60;4.97;;;21.10;99.90;;;;;;4721856;30;20054;-76
2022/10/17 04:34:49;;;;;;;12.20;5.00;;;21.10;99.90;;;;;;4721298;30;20075;-75
2022/10/17 04:37:15;;;;;;;12.10;4.75;;;21.10;99.90;;;;;;4707139;30;20041;-76
2022/10/17 04:39:40;;;;;;;12.48;5.00;;;21.10;99.90;;;;;;4726903;30;20048;-76
2022/10/17 04:42:06;;;;;;;20.13;6.07;;;21.10;99.90;;;;;;4723887;30;20458;-76
2022/10/17 04:44:34;;;;;;;13.35;5.03;;;21.20;99.90;;;;;;4728577;30;20040;-72
2022/10/17 04:47:00;;;;;;;9.73;4.63;;;21.20;99.90;;;;;;4725037;30;20049;-73
2022/10/17 04:49:26;;;;;;;10.32;4.85;;;21.30;99.90;;;;;;4722305;30;20060;-74
2022/10/17 04:51:51;;;;;;;11.63;4.65;;;21.30;99.90;;;;;;4724217;30;20449;-74
2022/10/17 04:54:17;;;;;;;43.65;21.40;;;21.30;99.90;;;;;;4721174;30;20105;-73
2022/10/17 04:56:46;;;;;;;13.68;5.63;;;21.30;99.90;;;;;;4726648;30;20045;-73
2022/10/17 04:59:11;;;;;;;11.18;4.80;;;21.30;99.90;;;;;;4721242;30;20067;-73
2022/10/17 05:01:37;;;;;;;14.25;4.55;;;21.30;99.90;;;;;;4723821;30;20041;-73
2022/10/17 05:04:03;;;;;;;12.15;4.72;;;21.30;99.90;;;;;;4733874;30;20041;-73
2022/10/17 05:06:29;;;;;;;12.38;5.28;;;21.20;99.90;;;;;;4724170;30;20487;-73
2022/10/17 05:08:56;;;;;;;14.48;5.43;;;21.20;99.90;;;;;;4719023;30;20045;-73
2022/10/17 05:11:27;;;;;;;12.88;4.88;;;21.10;99.90;;;;;;4718997;30;20056;-75
2022/10/17 05:13:55;;;;;;;19.55;6.32;;;21.10;99.90;;;;;;4709520;30;20198;-74
2022/10/17 05:16:24;;;;;;;12.63;4.93;;;21.10;99.90;;;;;;4720024;30;20431;-73
2022/10/17 05:18:55;;;;;;;12.27;4.90;;;21.10;99.90;;;;;;4718194;30;20071;-74
2022/10/17 05:21:24;;;;;;;14.80;5.82;;;21.10;99.90;;;;;;4717826;30;20068;-73
2022/10/17 05:23:50;;;;;;;16.17;6.30;;;21.10;99.90;;;;;;4717980;30;20082;-73
2022/10/17 05:26:17;;;;;;;12.50;5.57;;;21.10;99.90;;;;;;4721271;30;20098;-74
2022/10/17 05:28:42;;;;;;;15.48;6.50;;;21.10;99.90;;;;;;4729734;30;20200;-73
2022/10/17 05:31:09;;;;;;;10.70;4.85;;;21.00;99.90;;;;;;4722169;30;20602;-73
2022/10/17 05:33:36;;;;;;;12.70;5.63;;;21.00;99.90;;;;;;4720631;30;20034;-73
2022/10/17 05:36:02;;;;;;;;;;;21.00;99.90;;;;;;4724923;30;20099;-73
2022/10/17 05:38:28;;;;;;;11.65;4.88;;;21.00;99.90;;;;;;4726535;30;19929;-73
2022/10/17 05:41:02;;;;;;;11.30;4.97;;;21.00;99.90;;;;;;4720944;30;20128;-73
2022/10/17 05:43:29;;;;;;;10.32;4.45;;;21.00;99.90;;;;;;4736486;30;20044;-74
2022/10/17 05:45:55;;;;;;;9.93;4.25;;;21.00;99.90;;;;;;4722103;30;20029;-73
2022/10/17 05:48:21;;;;;;;17.05;4.55;;;21.00;99.90;;;;;;4731839;30;20561;-73
2022/10/17 05:50:47;;;;;;;9.32;3.97;;;21.00;99.90;;;;;;4735546;29;20529;-73
2022/10/17 05:53:14;;;;;;;14.23;4.93;;;20.90;99.90;;;;;;4724137;30;20048;-76
2022/10/17 05:55:39;;;;;;;10.82;4.40;;;20.90;99.90;;;;;;4726986;30;20616;-77
2022/10/17 05:58:06;;;;;;;11.90;3.97;;;20.90;99.90;;;;;;4722291;30;20041;-76
2022/10/17 06:00:32;;;;;;;13.77;3.97;;;20.90;99.90;;;;;;4720884;30;20041;-77
2022/10/17 06:02:58;;;;;;;17.15;4.30;;;20.90;99.90;;;;;;4724458;30;20043;-77
2022/10/17 06:05:24;;;;;;;11.93;4.13;;;20.90;99.90;;;;;;4725061;30;20045;-77
2022/10/17 06:07:51;;;;;;;10.60;3.80;;;20.90;99.90;;;;;;4726937;30;20226;-77
2022/10/17 06:10:17;;;;;;;12.38;4.60;;;20.90;99.90;;;;;;4722504;30;20510;-77
2022/10/17 06:12:44;;;;;;;14.90;3.97;;;20.80;99.90;;;;;;4723229;30;20053;-77
2022/10/17 06:15:11;;;;;;;8.88;3.60;;;20.90;99.90;;;;;;4722720;30;20060;-79
2022/10/17 06:17:37;;;;;;;13.13;4.10;;;20.80;99.90;;;;;;4724037;30;20038;-77
2022/10/17 06:20:03;;;;;;;11.18;4.50;;;20.80;99.90;;;;;;4724823;30;20045;-78
2022/10/17 06:22:29;;;;;;;9.57;3.47;;;20.80;99.90;;;;;;4731354;30;20041;-76
2022/10/17 06:24:56;;;;;;;12.32;3.67;;;20.90;99.90;;;;;;4726278;30;20056;-76
2022/10/17 06:27:22;;;;;;;13.43;4.72;;;20.90;99.90;;;;;;4722095;30;22335;-77
2022/10/17 06:29:49;;;;;;;10.20;3.42;;;21.00;99.90;;;;;;4728729;30;20468;-77
2022/10/17 06:32:15;;;;;;;10.93;3.50;;;21.00;99.90;;;;;;4725520;30;20045;-77
2022/10/17 06:34:41;;;;;;;12.25;4.25;;;21.10;99.90;;;;;;4730255;30;20047;-77
2022/10/17 06:37:07;;;;;;;10.27;4.30;;;21.10;99.90;;;;;;4726930;30;20051;-79
2022/10/17 06:39:34;;;;;;;6.75;3.15;;;21.20;99.90;;;;;;4729743;30;20071;-77
2022/10/17 06:42:00;;;;;;;10.95;3.60;;;21.10;99.90;;;;;;4723182;30;20045;-78
2022/10/17 06:44:30;;;;;;;10.63;3.55;;;21.10;99.90;;;;;;4725577;30;20505;-77
2022/10/17 06:46:57;;;;;;;10.90;3.35;;;21.10;99.90;;;;;;4725430;30;20490;-76
2022/10/17 06:49:23;;;;;;;12.45;3.33;;;21.10;99.90;;;;;;4726645;30;20132;-77
2022/10/17 06:51:49;;;;;;;11.75;3.88;;;21.10;99.90;;;;;;4730073;30;20101;-78
2022/10/17 06:54:15;;;;;;;13.95;3.53;;;21.20;99.90;;;;;;4724030;30;20946;-77
2022/10/17 06:56:40;;;;;;;8.23;3.47;;;21.20;99.90;;;;;;4729316;30;20057;-78
2022/10/17 06:59:07;;;;;;;11.50;3.22;;;21.20;99.90;;;;;;4726656;30;20116;-77
2022/10/17 07:01:33;;;;;;;9.82;3.25;;;21.20;99.90;;;;;;4728485;30;20033;-77
2022/10/17 07:03:59;;;;;;;10.82;3.58;;;21.20;99.90;;;;;;4723914;30;20368;-77
2022/10/17 07:06:27;;;;;;;10.45;3.53;;;21.20;99.90;;;;;;4726740;30;20052;-77
2022/10/17 07:08:54;;;;;;;11.05;3.85;;;21.30;99.90;;;;;;4727756;30;20041;-77
2022/10/17 07:11:22;;;;;;;14.57;5.07;;;21.40;99.90;;;;;;4726586;30;21020;-77
2022/10/17 07:13:49;;;;;;;9.32;3.45;;;21.40;99.90;;;;;;4726776;30;20045;-77
2022/10/17 07:16:15;;;;;;;15.00;4.78;;;21.50;99.90;;;;;;4723406;30;20124;-77
2022/10/17 07:18:42;;;;;;;19.33;10.18;;;21.60;99.90;;;;;;4728377;30;20120;-78
2022/10/17 07:21:08;;;;;;;12.65;5.05;;;21.70;99.90;;;;;;4725637;30;20045;-77
2022/10/17 07:23:35;;;;;;;11.07;3.63;;;21.90;99.90;;;;;;4726767;30;20072;-77
2022/10/17 07:26:07;;;;;;;17.08;4.30;;;22.00;99.90;;;;;;4731237;30;20733;-77
2022/10/17 07:28:38;;;;;;;12.23;3.40;;;22.10;99.90;;;;;;4718716;30;20075;-77
2022/10/17 07:31:11;;;;;;;12.00;3.50;;;22.10;99.90;;;;;;4720523;30;20077;-76
2022/10/17 07:33:37;;;;;;;11.48;4.03;;;22.10;99.90;;;;;;4738144;30;20045;-76
2022/10/17 07:36:04;;;;;;;12.38;3.55;;;22.10;99.90;;;;;;4728911;30;20091;-76
2022/10/17 07:38:30;;;;;;;13.73;4.57;;;22.20;99.90;;;;;;4726450;30;20049;-76
2022/10/17 07:40:58;;;;;;;12.25;3.80;;;22.20;99.90;;;;;;4740321;30;20101;-76
2022/10/17 07:43:25;;;;;;;11.02;3.47;;;22.20;99.90;;;;;;4722090;30;20139;-76
2022/10/17 07:45:51;;;;;;;13.32;3.53;;;22.30;99.90;;;;;;4731218;30;20037;-76
2022/10/17 07:48:17;;;;;;;11.50;3.38;;;22.30;99.90;;;;;;4726762;30;20044;-76
2022/10/17 07:50:43;;;;;;;12.30;4.45;;;22.30;99.90;;;;;;4721854;30;20051;-76
2022/10/17 07:53:09;;;;;;;11.15;4.07;;;22.50;99.90;;;;;;4723808;30;20049;-76
2022/10/17 07:55:40;;;;;;;9.95;3.85;;;22.50;99.90;;;;;;4719307;30;20048;-76
2022/10/17 07:58:07;;;;;;;10.52;4.07;;;22.60;99.90;;;;;;4722476;30;20088;-76
2022/10/17 08:00:33;;;;;;;;;;;22.70;99.90;;;;;;4726035;30;20036;-77
2022/10/17 08:02:58;;;;;;;13.57;3.90;;;22.80;99.90;;;;;;4739023;30;19926;-77
2022/10/17 08:05:24;;;;;;;10.68;3.95;;;22.80;99.90;;;;;;4724374;30;20049;-75
2022/10/17 08:07:50;;;;;;;28.75;14.52;;;22.80;99.90;;;;;;4724620;30;20040;-76
2022/10/17 08:10:18;;;;;;;15.20;6.03;;;22.90;99.90;;;;;;4716268;30;20060;-76
2022/10/17 08:12:44;;;;;;;14.98;4.63;;;22.90;99.90;;;;;;4722649;30;20049;-76
2022/10/17 08:15:12;;;;;;;12.18;4.40;;;23.00;99.90;;;;;;4720628;30;20174;-76
2022/10/17 08:17:39;;;;;;;15.68;4.32;;;23.10;99.90;;;;;;4713081;30;20128;-76
2022/10/17 08:20:05;;;;;;;17.73;4.35;;;23.10;99.90;;;;;;4718647;30;20485;-76
2022/10/17 08:22:32;;;;;;;15.25;4.30;;;23.10;99.90;;;;;;4720043;30;20069;-76
2022/10/17 08:24:57;;;;;;;;;;;23.20;99.90;;;;;;4722190;30;20414;-75
2022/10/17 08:27:24;;;;;;;9.88;3.72;;;23.30;99.90;;;;;;4715586;30;19934;-76
2022/10/17 08:29:53;;;;;;;;;;;23.20;99.90;;;;;;4735265;30;20041;-76
2022/10/17 08:32:25;;;;;;;11.90;3.58;;;23.10;99.90;;;;;;4723187;30;19986;-75
2022/10/17 08:34:51;;;;;;;15.02;4.40;;;23.10;99.90;;;;;;4722579;30;20052;-76
2022/10/17 08:37:17;;;;;;;15.82;5.40;;;23.20;99.90;;;;;;4720809;30;20461;-76
2022/10/17 08:39:44;;;;;;;17.67;4.57;;;23.20;99.90;;;;;;4718446;30;20045;-76
2022/10/17 08:42:28;;;;;;;;;;;23.20;99.90;;;;;;4712884;30;20156;-75
2022/10/17 08:44:59;;;;;;;18.55;4.93;;;23.20;99.90;;;;;;4724149;30;20018;-75
2022/10/17 08:47:38;;;;;;;14.43;4.38;;;23.20;99.90;;;;;;4713345;30;20134;-75
2022/10/17 08:50:19;;;;;;;13.80;4.38;;;23.20;99.90;;;;;;4718903;30;20064;-75
2022/10/17 08:52:50;;;;;;;13.32;5.47;;;23.20;99.90;;;;;;4719348;30;20055;-76
2022/10/17 08:55:37;;;;;;;18.00;4.95;;;23.10;99.90;;;;;;4716089;30;20068;-75
2022/10/17 08:58:17;;;;;;;12.70;4.32;;;23.20;99.90;;;;;;4721574;30;20041;-76
2022/10/17 09:01:07;;;;;;;15.32;4.88;;;23.10;99.90;;;;;;4722557;30;20135;-75
2022/10/17 09:03:51;;;;;;;16.20;5.30;;;23.20;99.90;;;;;;4740781;30;20106;-76
2022/10/17 09:06:28;;;;;;;14.52;5.05;;;23.30;99.90;;;;;;4739280;30;20059;-76
2022/10/17 09:09:19;;;;;;;17.92;5.40;;;23.30;99.90;;;;;;4737465;30;20046;-76
2022/10/17 09:12:01;;;;;;;15.63;5.13;;;23.50;99.90;;;;;;4734388;30;20109;-76
2022/10/17 09:14:49;;;;;;;15.80;5.10;;;23.50;99.90;;;;;;4726250;30;20059;-76
2022/10/17 09:17:48;;;;;;;22.08;5.88;;;23.70;99.90;;;;;;4734478;30;20048;-76
2022/10/17 09:20:24;;;;;;;18.88;5.22;;;23.80;99.90;;;;;;4737731;30;20083;-76
2022/10/17 09:23:31;;;;;;;19.95;5.13;;;23.90;99.90;;;;;;4737390;30;20792;-76
2022/10/17 09:25:59;;;;;;;16.02;4.90;;;24.00;99.90;;;;;;4746342;30;20102;-76
2022/10/17 09:28:25;;;;;;;15.73;5.40;;;24.20;99.90;;;;;;4713890;30;20075;-76
2022/10/17 09:31:01;;;;;;;16.23;5.93;;;24.20;99.90;;;;;;4735095;30;20393;-75
2022/10/17 09:33:37;;;;;;;21.52;6.05;;;24.20;99.90;;;;;;4740589;30;20063;-77
2022/10/17 09:36:29;;;;;;;17.92;5.47;;;24.40;99.90;;;;;;4732035;30;20143;-76
2022/10/17 09:38:58;;;;;;;14.30;5.05;;;24.60;99.90;;;;;;4740445;30;20123;-76
2022/10/17 09:41:46;;;;;;;18.23;5.15;;;24.60;99.90;;;;;;4735151;30;20051;-75
2022/10/17 09:44:14;;;;;;;18.45;5.88;;;24.70;99.90;;;;;;4737180;30;20067;-76
2022/10/17 09:46:46;;;;;;;15.98;5.47;;;25.30;99.90;;;;;;4734677;30;20048;-76
2022/10/17 09:49:20;;;;;;;20.63;5.78;;;26.00;99.90;;;;;;4740482;30;20055;-75
2022/10/17 09:51:47;;;;;;;17.63;4.30;;;26.30;99.90;;;;;;4742399;29;20044;-76
2022/10/17 09:54:22;;;;;;;18.10;4.65;;;26.00;99.90;;;;;;4741720;30;20400;-76
2022/10/17 09:57:01;;;;;;;20.02;5.07;;;25.90;99.90;;;;;;4742844;29;20097;-76
2022/10/17 09:59:39;;;;;;;16.70;5.93;;;25.60;99.90;;;;;;4741652;30;20048;-76
2022/10/17 10:02:19;;;;;;;20.00;8.27;;;25.70;99.90;;;;;;4738914;30;20420;-75
2022/10/17 10:05:15;;;;;;;16.63;4.72;;;25.90;99.90;;;;;;4740286;30;20100;-75
2022/10/17 10:07:43;;;;;;;16.15;4.70;;;25.70;99.90;;;;;;4735914;30;20044;-76
2022/10/17 10:10:27;;;;;;;15.18;4.55;;;25.60;99.90;;;;;;4727480;30;20135;-77
2022/10/17 10:13:11;;;;;;;17.42;5.00;;;25.40;99.90;;;;;;4736422;30;20156;-77
2022/10/17 10:15:39;;;;;;;;;;;25.30;99.90;;;;;;4740742;30;20044;-77
2022/10/17 10:18:24;;;;;;;15.63;4.93;;;25.30;99.90;;;;;;4743604;29;19922;-76
2022/10/17 10:21:03;;;;;;;14.10;4.75;;;25.30;99.90;;;;;;4740221;30;20448;-77
2022/10/17 10:23:29;;;;;;;25.38;5.70;;;25.30;99.90;;;;;;4737524;30;20071;-76
2022/10/17 10:26:02;;;;;;;16.55;5.20;;;25.20;99.90;;;;;;4751704;30;20052;-76
2022/10/17 10:28:35;;;;;;;15.45;5.43;;;25.30;99.90;;;;;;4736820;30;20051;-76
2022/10/17 10:31:07;;;;;;;18.67;5.38;;;25.40;99.90;;;;;;4742386;30;20411;-76
2022/10/17 10:33:36;;;;;;;22.25;5.43;;;25.40;99.90;;;;;;4737804;29;20048;-76
2022/10/17 10:36:05;;;;;;;18.10;5.20;;;25.50;99.90;;;;;;4736318;30;20044;-76
2022/10/17 10:38:32;;;;;;;16.80;4.70;;;25.60;99.90;;;;;;4752206;30;20040;-76
2022/10/17 10:41:06;;;;;;;22.48;5.10;;;26.20;99.90;;;;;;4733719;30;20195;-75
2022/10/17 10:43:40;;;;;;;19.88;4.68;;;26.60;99.90;;;;;;4741286;30;20675;-76
2022/10/17 10:46:21;;;;;;;14.02;4.60;;;27.10;99.90;;;;;;4739948;29;20056;-76
2022/10/17 10:48:59;;;;;;;17.52;4.35;;;27.60;99.90;;;;;;4741486;30;20462;-76
2022/10/17 10:51:30;;;;;;;18.00;4.22;;;27.70;99.90;;;;;;4739754;30;20040;-77
2022/10/17 10:54:19;;;;;;;19.40;4.53;;;27.70;99.90;;;;;;4740669;30;20102;-76
2022/10/17 10:56:51;;;;;;;28.65;12.05;;;28.50;99.90;;;;;;4736085;30;20044;-76
2022/10/17 10:59:28;;;;;;;16.27;4.57;;;28.80;99.90;;;;;;4739795;30;20417;-77
2022/10/17 11:01:58;;;;;;;14.15;4.10;;;28.90;99.90;;;;;;4740353;30;20441;-77
2022/10/17 11:04:31;;;;;;;19.02;4.65;;;28.50;99.90;;;;;;4740198;30;20038;-76
2022/10/17 11:07:06;;;;;;;14.65;4.68;;;27.90;99.90;;;;;;4741707;30;20048;-77
2022/10/17 11:10:14;;;;;;;17.35;4.78;;;27.60;99.90;;;;;;4736273;29;20170;-78
2022/10/17 11:12:57;;;;;;;19.73;4.90;;;27.30;99.90;;;;;;4738194;30;20049;-76
2022/10/17 11:15:31;;;;;;;14.93;4.70;;;27.10;99.90;;;;;;4738601;29;20051;-77
2022/10/17 11:18:04;;;;;;;15.40;4.05;;;26.90;99.90;;;;;;4743995;30;20052;-76
2022/10/17 11:20:57;;;;;;;13.63;4.47;;;26.80;99.90;;;;;;4753154;29;20048;-75
2022/10/17 11:23:53;;;;;;;15.20;4.43;;;26.60;99.90;;;;;;4739685;30;20048;-77
2022/10/17 11:26:26;;;;;;;16.42;4.88;;;26.60;99.90;;;;;;4732376;30;20067;-78
2022/10/17 11:28:57;;;;;;;13.82;3.97;;;26.50;99.90;;;;;;4742059;30;20512;-76
2022/10/17 11:31:28;;;;;;;17.27;5.07;;;26.40;99.90;;;;;;4739863;30;20043;-77
2022/10/17 11:33:54;;;;;;;16.23;4.00;;;26.20;99.90;;;;;;4737490;30;20070;-76
2022/10/17 11:36:24;;;;;;;19.35;5.25;;;26.50;99.90;;;;;;4737609;30;20424;-76
2022/10/17 11:39:04;;;;;;;17.30;4.50;;;26.30;99.90;;;;;;4743675;30;20040;-76
2022/10/17 11:42:00;;;;;;;14.25;4.40;;;26.30;99.90;;;;;;4736820;29;20041;-76
2022/10/17 11:44:35;;;;;;;17.90;4.65;;;26.30;99.90;;;;;;4719678;30;20049;-76
2022/10/17 11:47:25;;;;;;;17.38;4.28;;;26.10;99.90;;;;;;4743162;30;20059;-76
2022/10/17 11:50:01;;;;;;;17.80;4.75;;;26.10;99.90;;;;;;4736031;30;20040;-76
2022/10/17 11:52:27;;;;;;;18.30;5.20;;;26.30;99.90;;;;;;4737523;30;20405;-76
2022/10/17 11:55:02;;;;;;;13.77;4.10;;;26.80;99.90;;;;;;4741390;30;20045;-76
2022/10/17 11:57:36;;;;;;;19.75;4.35;;;27.80;99.90;;;;;;4738301;30;20044;-76
2022/10/17 12:00:47;;;;;;;15.68;4.13;;;28.20;99.90;;;;;;4739036;30;20111;-76
2022/10/17 12:03:40;;;;;;;14.52;4.65;;;28.20;99.90;;;;;;4722373;30;20075;-76
2022/10/17 12:06:35;;;;;;;15.05;4.85;;;27.80;99.90;;;;;;4748788;29;20044;-77
2022/10/17 12:09:29;;;;;;;13.93;4.00;;;27.70;99.90;;;;;;4737294;30;20075;-76
2022/10/17 12:11:58;;;;;;;17.15;4.47;;;28.20;99.90;;;;;;4753248;30;20829;-76
2022/10/17 12:14:45;;;;;;;15.18;4.10;;;28.10;99.90;;;;;;4727954;30;20049;-77
2022/10/17 12:17:33;;;;;;;17.30;3.92;;;28.00;99.90;;;;;;4738224;30;20041;-75
2022/10/17 12:20:23;;;;;;;13.85;4.97;;;28.20;99.90;;;;;;4736431;30;20470;-75
2022/10/17 12:23:10;;;;;;;16.05;4.20;;;28.00;99.90;;;;;;4734784;30;20043;-74
2022/10/17 12:25:47;;;;;;;19.15;4.68;;;27.80;99.90;;;;;;4739025;30;20059;-73
2022/10/17 12:28:30;;;;;;;17.45;3.65;;;27.40;99.90;;;;;;4711693;30;20052;-74
2022/10/17 12:31:00;;;;;;;17.27;4.78;;;27.00;99.90;;;;;;4733830;30;20068;-74
2022/10/17 12:33:49;;;;;;;15.35;4.32;;;26.70;99.90;;;;;;4735759;30;20051;-74
2022/10/17 12:36:21;;;;;;;18.55;3.83;;;26.60;99.90;;;;;;4737196;30;20048;-74
2022/10/17 12:38:51;;;;;;;20.00;5.30;;;26.50;99.90;;;;;;4741000;30;20383;-74
2022/10/17 12:41:38;;;;;;;14.43;4.63;;;26.50;99.90;;;;;;4729756;30;20385;-75
2022/10/17 12:44:20;;;;;;;14.35;4.05;;;26.10;99.90;;;;;;4742868;30;20075;-74
2022/10/17 12:47:15;;;;;;;17.42;4.00;;;26.10;99.90;;;;;;4737015;30;20037;-73
2022/10/17 12:49:48;;;;;;;20.48;4.60;;;26.00;99.90;;;;;;4734030;30;20045;-76
2022/10/17 12:52:30;;;;;;;20.42;4.47;;;25.90;99.90;;;;;;4737427;30;20056;-74
2022/10/17 12:55:02;;;;;;;14.50;4.38;;;25.80;99.90;;;;;;4736542;30;20044;-74
2022/10/17 12:57:33;;;;;;;17.17;3.72;;;25.70;99.90;;;;;;4735943;30;20055;-73
2022/10/17 13:00:20;;;;;;;18.67;3.83;;;25.90;99.90;;;;;;4738792;30;20048;-73
2022/10/17 13:02:48;;;;;;;18.20;3.65;;;26.10;99.90;;;;;;4739120;30;20043;-73
2022/10/17 13:05:47;;;;;;;23.20;4.32;;;26.60;99.90;;;;;;4750081;29;20055;-74
2022/10/17 13:08:24;;;;;;;17.55;3.92;;;26.40;99.90;;;;;;4736727;30;20051;-74